Aérodrome :
LOGIN :

S'inscrire | Disclaimer

   EN    FR    IT 

 










Légende :    VFR   VFR Marginal   IFR   IFR Intensif   IFR Très Intensif
Visi : 
Plafond : 
>= 8 km
>= 3000ft
5 à 8 km
1000 à 3000 ft
1500m à 5 km
500 à 1000 ft
800 à 1500m
200 à 500 ft
< 800m
< 200 ft
Symboles :   Orages  Brouillard  Fortes neiges  Fortes précipitations  Vent > 20 kt
SIGMETs :   Divers  Orages  Givrage  Turbulence  Onde Orograph.  Cendres Volcan.






- Altitude de l'aérodrome : 333 ft


LIPL - Ghedi Brescia (Mil)

DERNIER METAR :
  • 051855Z 06003KT 6000 FEW025 08/08 Q1015 RMK SCT VIS MIN 6000 WIND THR31 05002KT WIND THR13 05003KT WHT

METARs EXPIRÉS :
  • 051755Z 15002KT 6000 FEW025 11/08 Q1014 RMK SCT VIS MIN 6000 WIND THR31 16002KT WIND THR13 16002KT WHT
  • 051655Z 19001KT 9999 FEW080 13/08 Q1014 RMK FEW VIS MIN 9999 WIND THR31 19002KT WIND THR13 20001KT BLU

TAF TAF LIPL
Valide du 05 à 18h jusqu'au 06 à 03h UTC


051700Z 0518/0603 09006KT 9999 SCT020 SCT060
TEMPO 0520/0603 3000 RA BR FEW010 BKN015



MET'MAP, la Météo Aéronautique d'un coup d'oeil ! - Copyright ORBIFLY Décembre 2007 - Disclaimer

ORBIFLY MET'MAP TEAM :

Programmation & Développement : Alexandra Zaïnal
Sur une idée originale de : Baudouin d'Aumeries
Assistance à la programmation : Marc-Olivier Méhu
Soutien technique & logistique : Manuel Goepfert

Contact : metmap@orbifly.com




SOURCES & CREDITS :

   NOAA